sensor_id;sensor_type;location;lat;lon;timestamp;pressure;altitude;pressure_sealevel;temperature;humidity
47983;BME280;33751;50.816;-1.214;2022-10-16T00:02:18;100630.48;;;12.89;100.00
47983;BME280;33751;50.816;-1.214;2022-10-16T00:04:45;100631.69;;;13.09;100.00
47983;BME280;33751;50.816;-1.214;2022-10-16T00:07:12;100638.81;;;13.06;100.00
47983;BME280;33751;50.816;-1.214;2022-10-16T00:09:38;100634.00;;;12.94;100.00
47983;BME280;33751;50.816;-1.214;2022-10-16T00:12:05;100635.35;;;13.28;100.00
47983;BME280;33751;50.816;-1.214;2022-10-16T00:14:32;100640.40;;;13.12;100.00
47983;BME280;33751;50.816;-1.214;2022-10-16T00:16:59;100638.71;;;13.15;100.00
47983;BME280;33751;50.816;-1.214;2022-10-16T00:19:26;100643.96;;;13.20;100.00
47983;BME280;33751;50.816;-1.214;2022-10-16T00:21:52;100639.43;;;13.47;100.00
47983;BME280;33751;50.816;-1.214;2022-10-16T00:24:19;100642.12;;;13.21;100.00
47983;BME280;33751;50.816;-1.214;2022-10-16T00:26:49;100642.80;;;13.11;100.00
47983;BME280;33751;50.816;-1.214;2022-10-16T00:29:16;100641.46;;;13.21;100.00
47983;BME280;33751;50.816;-1.214;2022-10-16T00:31:43;100630.28;;;13.04;100.00
47983;BME280;33751;50.816;-1.214;2022-10-16T00:34:09;100637.12;;;13.07;100.00
47983;BME280;33751;50.816;-1.214;2022-10-16T00:36:36;100643.53;;;13.18;100.00
47983;BME280;33751;50.816;-1.214;2022-10-16T00:39:03;100640.66;;;13.11;100.00
47983;BME280;33751;50.816;-1.214;2022-10-16T00:41:31;100646.40;;;13.11;100.00
47983;BME280;33751;50.816;-1.214;2022-10-16T00:43:59;100661.22;;;13.10;100.00
47983;BME280;33751;50.816;-1.214;2022-10-16T00:46:29;100662.48;;;12.75;100.00
47983;BME280;33751;50.816;-1.214;2022-10-16T00:49:03;100677.18;;;12.45;100.00
47983;BME280;33751;50.816;-1.214;2022-10-16T00:51:33;100669.83;;;12.22;100.00
47983;BME280;33751;50.816;-1.214;2022-10-16T00:54:01;100682.30;;;12.51;100.00
47983;BME280;33751;50.816;-1.214;2022-10-16T00:56:28;100695.85;;;12.54;100.00
47983;BME280;33751;50.816;-1.214;2022-10-16T00:58:55;100690.99;;;12.64;100.00
47983;BME280;33751;50.816;-1.214;2022-10-16T01:01:22;100696.36;;;12.24;100.00
47983;BME280;33751;50.816;-1.214;2022-10-16T01:03:48;100699.40;;;12.17;100.00
47983;BME280;33751;50.816;-1.214;2022-10-16T01:06:23;100711.26;;;12.07;100.00
47983;BME280;33751;50.816;-1.214;2022-10-16T01:09:01;100706.73;;;12.41;100.00
47983;BME280;33751;50.816;-1.214;2022-10-16T01:11:34;100713.30;;;12.32;100.00
47983;BME280;33751;50.816;-1.214;2022-10-16T01:14:10;100715.17;;;12.37;100.00
47983;BME280;33751;50.816;-1.214;2022-10-16T01:16:43;100717.51;;;12.18;100.00
47983;BME280;33751;50.816;-1.214;2022-10-16T01:19:17;100717.93;;;12.21;100.00
47983;BME280;33751;50.816;-1.214;2022-10-16T01:21:48;100722.66;;;12.10;100.00
47983;BME280;33751;50.816;-1.214;2022-10-16T01:24:27;100723.57;;;11.99;100.00
47983;BME280;33751;50.816;-1.214;2022-10-16T01:27:05;100717.68;;;12.30;100.00
47983;BME280;33751;50.816;-1.214;2022-10-16T01:29:36;100716.30;;;12.21;100.00
47983;BME280;33751;50.816;-1.214;2022-10-16T01:32:11;100710.17;;;12.19;100.00
47983;BME280;33751;50.816;-1.214;2022-10-16T01:34:48;100709.76;;;12.26;100.00
47983;BME280;33751;50.816;-1.214;2022-10-16T01:37:22;100721.32;;;12.34;100.00
47983;BME280;33751;50.816;-1.214;2022-10-16T01:39:55;100722.55;;;12.22;100.00
47983;BME280;33751;50.816;-1.214;2022-10-16T01:42:29;100718.11;;;12.32;100.00
47983;BME280;33751;50.816;-1.214;2022-10-16T01:44:58;100720.52;;;12.06;100.00
47983;BME280;33751;50.816;-1.214;2022-10-16T01:47:26;100724.46;;;12.22;100.00
47983;BME280;33751;50.816;-1.214;2022-10-16T01:49:53;100723.81;;;12.50;100.00
47983;BME280;33751;50.816;-1.214;2022-10-16T01:52:23;100725.85;;;12.29;100.00
47983;BME280;33751;50.816;-1.214;2022-10-16T01:54:53;100723.00;;;12.23;100.00
47983;BME280;33751;50.816;-1.214;2022-10-16T01:57:24;100725.08;;;12.25;100.00
47983;BME280;33751;50.816;-1.214;2022-10-16T01:59:56;100724.27;;;12.10;100.00
47983;BME280;33751;50.816;-1.214;2022-10-16T02:02:30;100723.06;;;12.38;100.00
47983;BME280;33751;50.816;-1.214;2022-10-16T02:05:03;100730.77;;;12.44;100.00
47983;BME280;33751;50.816;-1.214;2022-10-16T02:07:31;100729.78;;;12.21;100.00
47983;BME280;33751;50.816;-1.214;2022-10-16T02:09:59;100729.90;;;12.36;100.00
47983;BME280;33751;50.816;-1.214;2022-10-16T02:12:28;100731.59;;;12.01;100.00
47983;BME280;33751;50.816;-1.214;2022-10-16T02:14:57;100736.81;;;12.24;100.00
47983;BME280;33751;50.816;-1.214;2022-10-16T02:17:25;100734.10;;;12.38;100.00
47983;BME280;33751;50.816;-1.214;2022-10-16T02:19:54;100734.23;;;12.22;100.00
47983;BME280;33751;50.816;-1.214;2022-10-16T02:22:26;100735.27;;;12.35;100.00
47983;BME280;33751;50.816;-1.214;2022-10-16T02:24:57;100740.40;;;12.37;100.00
47983;BME280;33751;50.816;-1.214;2022-10-16T02:27:27;100738.03;;;12.24;100.00
47983;BME280;33751;50.816;-1.214;2022-10-16T02:30:02;100738.58;;;11.62;100.00
47983;BME280;33751;50.816;-1.214;2022-10-16T02:32:32;100733.98;;;11.92;100.00
47983;BME280;33751;50.816;-1.214;2022-10-16T02:35:01;100733.64;;;12.22;100.00
47983;BME280;33751;50.816;-1.214;2022-10-16T02:37:29;100736.37;;;12.39;100.00
47983;BME280;33751;50.816;-1.214;2022-10-16T02:39:58;100733.81;;;12.06;100.00
47983;BME280;33751;50.816;-1.214;2022-10-16T02:42:28;100737.35;;;12.31;100.00
47983;BME280;33751;50.816;-1.214;2022-10-16T02:44:55;100736.91;;;12.18;100.00
47983;BME280;33751;50.816;-1.214;2022-10-16T02:47:22;100742.23;;;12.44;100.00
47983;BME280;33751;50.816;-1.214;2022-10-16T02:49:49;100746.27;;;12.14;100.00
47983;BME280;33751;50.816;-1.214;2022-10-16T02:52:16;100748.45;;;12.27;100.00
47983;BME280;33751;50.816;-1.214;2022-10-16T02:54:43;100755.34;;;12.20;100.00
47983;BME280;33751;50.816;-1.214;2022-10-16T02:57:10;100755.04;;;12.09;100.00
47983;BME280;33751;50.816;-1.214;2022-10-16T02:59:37;100757.39;;;12.28;100.00
47983;BME280;33751;50.816;-1.214;2022-10-16T03:02:04;100754.68;;;12.11;100.00
47983;BME280;33751;50.816;-1.214;2022-10-16T03:04:32;100763.48;;;12.64;100.00
47983;BME280;33751;50.816;-1.214;2022-10-16T03:06:58;100762.82;;;12.69;100.00
47983;BME280;33751;50.816;-1.214;2022-10-16T03:09:24;100762.07;;;12.27;100.00
47983;BME280;33751;50.816;-1.214;2022-10-16T03:11:51;100765.27;;;12.28;100.00
47983;BME280;33751;50.816;-1.214;2022-10-16T03:14:17;100768.40;;;12.49;100.00
47983;BME280;33751;50.816;-1.214;2022-10-16T03:16:44;100779.02;;;12.49;100.00
47983;BME280;33751;50.816;-1.214;2022-10-16T03:19:11;100775.86;;;12.65;100.00
47983;BME280;33751;50.816;-1.214;2022-10-16T03:21:37;100772.61;;;12.00;100.00
47983;BME280;33751;50.816;-1.214;2022-10-16T03:24:05;100785.38;;;12.23;100.00
47983;BME280;33751;50.816;-1.214;2022-10-16T03:26:32;100786.10;;;12.03;100.00
47983;BME280;33751;50.816;-1.214;2022-10-16T03:28:58;100786.10;;;12.31;100.00
47983;BME280;33751;50.816;-1.214;2022-10-16T03:31:26;100790.63;;;12.32;100.00
47983;BME280;33751;50.816;-1.214;2022-10-16T03:33:52;100795.55;;;11.96;100.00
47983;BME280;33751;50.816;-1.214;2022-10-16T03:36:19;100795.00;;;11.98;100.00
47983;BME280;33751;50.816;-1.214;2022-10-16T03:38:46;100801.53;;;11.79;100.00
47983;BME280;33751;50.816;-1.214;2022-10-16T03:41:12;100803.30;;;12.00;100.00
47983;BME280;33751;50.816;-1.214;2022-10-16T03:43:39;100807.48;;;11.82;100.00
47983;BME280;33751;50.816;-1.214;2022-10-16T03:46:05;100814.47;;;11.74;100.00
47983;BME280;33751;50.816;-1.214;2022-10-16T03:48:32;100817.91;;;11.70;100.00
47983;BME280;33751;50.816;-1.214;2022-10-16T03:50:59;100819.20;;;11.75;100.00
47983;BME280;33751;50.816;-1.214;2022-10-16T03:53:25;100820.35;;;11.62;100.00
47983;BME280;33751;50.816;-1.214;2022-10-16T03:55:52;100819.50;;;11.73;100.00
47983;BME280;33751;50.816;-1.214;2022-10-16T03:58:18;100823.06;;;11.45;100.00
47983;BME280;33751;50.816;-1.214;2022-10-16T04:00:46;100829.52;;;11.34;100.00
47983;BME280;33751;50.816;-1.214;2022-10-16T04:03:12;100834.16;;;11.46;100.00
47983;BME280;33751;50.816;-1.214;2022-10-16T04:05:39;100836.59;;;11.73;100.00
47983;BME280;33751;50.816;-1.214;2022-10-16T04:08:06;100839.80;;;11.37;100.00
47983;BME280;33751;50.816;-1.214;2022-10-16T04:10:33;100846.53;;;11.85;100.00
47983;BME280;33751;50.816;-1.214;2022-10-16T04:13:00;100847.97;;;11.56;100.00
47983;BME280;33751;50.816;-1.214;2022-10-16T04:15:26;100849.85;;;11.46;100.00
47983;BME280;33751;50.816;-1.214;2022-10-16T04:17:53;100854.26;;;11.49;100.00
47983;BME280;33751;50.816;-1.214;2022-10-16T04:20:21;100861.56;;;11.24;100.00
47983;BME280;33751;50.816;-1.214;2022-10-16T04:22:47;100865.25;;;11.28;100.00
47983;BME280;33751;50.816;-1.214;2022-10-16T04:25:14;100866.01;;;11.30;100.00
47983;BME280;33751;50.816;-1.214;2022-10-16T04:27:41;100865.40;;;11.41;100.00
47983;BME280;33751;50.816;-1.214;2022-10-16T04:30:09;100868.55;;;11.26;100.00
47983;BME280;33751;50.816;-1.214;2022-10-16T04:32:36;100870.30;;;11.31;100.00
47983;BME280;33751;50.816;-1.214;2022-10-16T04:35:03;100878.03;;;10.95;100.00
47983;BME280;33751;50.816;-1.214;2022-10-16T04:37:30;100886.61;;;11.23;100.00
47983;BME280;33751;50.816;-1.214;2022-10-16T04:39:57;100891.39;;;11.35;100.00
47983;BME280;33751;50.816;-1.214;2022-10-16T04:42:23;100897.59;;;11.11;100.00
47983;BME280;33751;50.816;-1.214;2022-10-16T04:44:50;100899.86;;;11.09;100.00
47983;BME280;33751;50.816;-1.214;2022-10-16T04:47:16;100902.03;;;11.06;100.00
47983;BME280;33751;50.816;-1.214;2022-10-16T04:49:43;100904.24;;;11.04;100.00
47983;BME280;33751;50.816;-1.214;2022-10-16T04:52:09;100900.91;;;11.04;100.00
47983;BME280;33751;50.816;-1.214;2022-10-16T04:54:36;100903.60;;;10.95;100.00
47983;BME280;33751;50.816;-1.214;2022-10-16T04:57:03;100908.18;;;11.12;100.00
47983;BME280;33751;50.816;-1.214;2022-10-16T04:59:30;100909.99;;;10.89;100.00
47983;BME280;33751;50.816;-1.214;2022-10-16T05:01:57;100915.16;;;11.06;100.00
47983;BME280;33751;50.816;-1.214;2022-10-16T05:04:24;100920.90;;;11.04;100.00
47983;BME280;33751;50.816;-1.214;2022-10-16T05:06:51;100925.96;;;10.77;100.00
47983;BME280;33751;50.816;-1.214;2022-10-16T05:09:18;100926.40;;;10.80;100.00
47983;BME280;33751;50.816;-1.214;2022-10-16T05:11:45;100926.60;;;10.79;100.00
47983;BME280;33751;50.816;-1.214;2022-10-16T05:14:12;100929.97;;;10.81;100.00
47983;BME280;33751;50.816;-1.214;2022-10-16T05:16:38;100933.01;;;10.79;100.00
47983;BME280;33751;50.816;-1.214;2022-10-16T05:19:05;100938.02;;;10.94;100.00
47983;BME280;33751;50.816;-1.214;2022-10-16T05:21:31;100936.02;;;10.80;100.00
47983;BME280;33751;50.816;-1.214;2022-10-16T05:23:58;100940.89;;;10.86;100.00
47983;BME280;33751;50.816;-1.214;2022-10-16T05:26:24;100944.58;;;10.85;100.00
47983;BME280;33751;50.816;-1.214;2022-10-16T05:28:51;100951.53;;;11.00;100.00
47983;BME280;33751;50.816;-1.214;2022-10-16T05:31:17;100957.22;;;11.24;100.00
47983;BME280;33751;50.816;-1.214;2022-10-16T05:33:44;100953.97;;;11.24;100.00
47983;BME280;33751;50.816;-1.214;2022-10-16T05:36:10;100960.19;;;11.15;100.00
47983;BME280;33751;50.816;-1.214;2022-10-16T05:38:37;100964.02;;;11.26;100.00
47983;BME280;33751;50.816;-1.214;2022-10-16T05:41:05;100968.11;;;11.09;100.00
47983;BME280;33751;50.816;-1.214;2022-10-16T05:43:32;100976.61;;;11.05;100.00
47983;BME280;33751;50.816;-1.214;2022-10-16T05:46:02;100979.47;;;10.99;100.00
47983;BME280;33751;50.816;-1.214;2022-10-16T05:48:29;100980.35;;;11.01;100.00
47983;BME280;33751;50.816;-1.214;2022-10-16T05:50:58;100984.59;;;11.02;100.00
47983;BME280;33751;50.816;-1.214;2022-10-16T05:53:27;100984.84;;;11.08;100.00
47983;BME280;33751;50.816;-1.214;2022-10-16T05:55:55;100987.09;;;11.19;100.00
47983;BME280;33751;50.816;-1.214;2022-10-16T05:58:22;100990.28;;;11.36;100.00
47983;BME280;33751;50.816;-1.214;2022-10-16T06:00:54;100999.77;;;11.26;100.00
47983;BME280;33751;50.816;-1.214;2022-10-16T06:03:21;101001.24;;;11.38;100.00
47983;BME280;33751;50.816;-1.214;2022-10-16T06:05:48;101012.17;;;11.44;100.00
47983;BME280;33751;50.816;-1.214;2022-10-16T06:08:15;101006.30;;;11.21;100.00
47983;BME280;33751;50.816;-1.214;2022-10-16T06:10:43;101010.30;;;11.44;100.00
47983;BME280;33751;50.816;-1.214;2022-10-16T06:13:10;101011.17;;;11.12;100.00
47983;BME280;33751;50.816;-1.214;2022-10-16T06:15:37;101006.07;;;11.15;100.00
47983;BME280;33751;50.816;-1.214;2022-10-16T06:18:04;101002.13;;;11.25;100.00
47983;BME280;33751;50.816;-1.214;2022-10-16T06:20:31;101005.94;;;10.83;100.00
47983;BME280;33751;50.816;-1.214;2022-10-16T06:22:58;101012.84;;;10.78;100.00
47983;BME280;33751;50.816;-1.214;2022-10-16T06:25:24;101015.61;;;10.99;100.00
47983;BME280;33751;50.816;-1.214;2022-10-16T06:27:51;101016.27;;;10.94;100.00
47983;BME280;33751;50.816;-1.214;2022-10-16T06:30:18;101018.84;;;10.68;100.00
47983;BME280;33751;50.816;-1.214;2022-10-16T06:32:44;101021.93;;;10.82;100.00
47983;BME280;33751;50.816;-1.214;2022-10-16T06:35:11;101020.75;;;10.80;100.00
47983;BME280;33751;50.816;-1.214;2022-10-16T06:37:37;101020.06;;;11.11;100.00
47983;BME280;33751;50.816;-1.214;2022-10-16T06:40:05;101022.71;;;10.81;100.00
47983;BME280;33751;50.816;-1.214;2022-10-16T06:42:32;101023.55;;;10.79;100.00
47983;BME280;33751;50.816;-1.214;2022-10-16T06:44:59;101026.84;;;10.78;100.00
47983;BME280;33751;50.816;-1.214;2022-10-16T06:47:25;101030.06;;;10.86;100.00
47983;BME280;33751;50.816;-1.214;2022-10-16T06:49:52;101031.45;;;10.93;100.00
47983;BME280;33751;50.816;-1.214;2022-10-16T06:52:18;101033.21;;;10.88;100.00
47983;BME280;33751;50.816;-1.214;2022-10-16T06:54:45;101035.59;;;10.89;100.00
47983;BME280;33751;50.816;-1.214;2022-10-16T06:57:11;101037.51;;;11.10;100.00
47983;BME280;33751;50.816;-1.214;2022-10-16T06:59:38;101044.51;;;11.00;100.00
47983;BME280;33751;50.816;-1.214;2022-10-16T07:02:05;101045.76;;;11.04;100.00
47983;BME280;33751;50.816;-1.214;2022-10-16T07:04:32;101044.67;;;11.15;100.00
47983;BME280;33751;50.816;-1.214;2022-10-16T07:07:00;101047.97;;;11.42;100.00
47983;BME280;33751;50.816;-1.214;2022-10-16T07:09:27;101055.54;;;11.27;100.00
47983;BME280;33751;50.816;-1.214;2022-10-16T07:11:53;101050.81;;;11.36;100.00
47983;BME280;33751;50.816;-1.214;2022-10-16T07:14:21;101055.05;;;11.34;100.00
47983;BME280;33751;50.816;-1.214;2022-10-16T07:16:48;101063.82;;;11.36;100.00
47983;BME280;33751;50.816;-1.214;2022-10-16T07:19:15;101071.84;;;11.45;100.00
47983;BME280;33751;50.816;-1.214;2022-10-16T07:21:41;101073.12;;;11.40;100.00
47983;BME280;33751;50.816;-1.214;2022-10-16T07:24:12;101071.31;;;11.61;100.00
47983;BME280;33751;50.816;-1.214;2022-10-16T07:26:40;101073.64;;;11.75;100.00
47983;BME280;33751;50.816;-1.214;2022-10-16T07:29:13;101076.97;;;12.25;100.00
47983;BME280;33751;50.816;-1.214;2022-10-16T07:31:41;101081.90;;;11.97;100.00
47983;BME280;33751;50.816;-1.214;2022-10-16T07:34:08;101084.46;;;12.13;100.00
47983;BME280;33751;50.816;-1.214;2022-10-16T07:36:35;101084.07;;;12.02;100.00
47983;BME280;33751;50.816;-1.214;2022-10-16T07:39:02;101094.37;;;12.23;100.00
47983;BME280;33751;50.816;-1.214;2022-10-16T07:41:29;101093.85;;;12.25;100.00
47983;BME280;33751;50.816;-1.214;2022-10-16T07:43:56;101092.04;;;12.03;100.00
47983;BME280;33751;50.816;-1.214;2022-10-16T07:46:23;101095.60;;;11.69;100.00
47983;BME280;33751;50.816;-1.214;2022-10-16T07:48:49;101099.95;;;12.19;100.00
47983;BME280;33751;50.816;-1.214;2022-10-16T07:51:18;101100.75;;;11.88;100.00
47983;BME280;33751;50.816;-1.214;2022-10-16T07:53:46;101100.76;;;11.93;100.00
47983;BME280;33751;50.816;-1.214;2022-10-16T07:56:14;101101.76;;;11.84;100.00
47983;BME280;33751;50.816;-1.214;2022-10-16T07:58:42;101105.31;;;12.51;100.00
47983;BME280;33751;50.816;-1.214;2022-10-16T08:01:11;101104.92;;;12.64;100.00
47983;BME280;33751;50.816;-1.214;2022-10-16T08:03:38;101104.57;;;12.49;100.00
47983;BME280;33751;50.816;-1.214;2022-10-16T08:06:07;101101.71;;;12.52;100.00
47983;BME280;33751;50.816;-1.214;2022-10-16T08:08:35;101108.72;;;12.55;100.00
47983;BME280;33751;50.816;-1.214;2022-10-16T08:11:02;101111.95;;;12.56;100.00
47983;BME280;33751;50.816;-1.214;2022-10-16T08:13:29;101117.40;;;12.54;100.00
47983;BME280;33751;50.816;-1.214;2022-10-16T08:15:56;101121.99;;;12.48;100.00
47983;BME280;33751;50.816;-1.214;2022-10-16T08:18:23;101126.96;;;12.41;100.00
47983;BME280;33751;50.816;-1.214;2022-10-16T08:20:55;101129.67;;;12.38;100.00
47983;BME280;33751;50.816;-1.214;2022-10-16T08:23:23;101136.90;;;12.44;100.00
47983;BME280;33751;50.816;-1.214;2022-10-16T08:25:51;101140.36;;;12.33;100.00
47983;BME280;33751;50.816;-1.214;2022-10-16T08:28:18;101143.65;;;12.56;100.00
47983;BME280;33751;50.816;-1.214;2022-10-16T08:30:45;101148.58;;;12.77;100.00
47983;BME280;33751;50.816;-1.214;2022-10-16T08:33:12;101152.07;;;12.77;100.00
47983;BME280;33751;50.816;-1.214;2022-10-16T08:35:39;101149.79;;;13.02;100.00
47983;BME280;33751;50.816;-1.214;2022-10-16T08:38:06;101149.43;;;13.45;100.00
47983;BME280;33751;50.816;-1.214;2022-10-16T08:40:35;101148.65;;;12.71;100.00
47983;BME280;33751;50.816;-1.214;2022-10-16T08:43:32;101149.25;;;13.37;100.00
47983;BME280;33751;50.816;-1.214;2022-10-16T08:46:15;101151.05;;;12.95;100.00
47983;BME280;33751;50.816;-1.214;2022-10-16T08:48:49;101152.98;;;13.33;100.00
47983;BME280;33751;50.816;-1.214;2022-10-16T08:51:21;101151.09;;;13.34;100.00
47983;BME280;33751;50.816;-1.214;2022-10-16T08:53:52;101150.64;;;13.33;100.00
47983;BME280;33751;50.816;-1.214;2022-10-16T08:56:20;101150.99;;;13.29;100.00
47983;BME280;33751;50.816;-1.214;2022-10-16T08:58:47;101148.94;;;13.53;100.00
47983;BME280;33751;50.816;-1.214;2022-10-16T09:01:16;101149.09;;;13.91;100.00
47983;BME280;33751;50.816;-1.214;2022-10-16T09:04:02;101148.60;;;13.69;100.00
47983;BME280;33751;50.816;-1.214;2022-10-16T09:06:42;101149.21;;;13.93;100.00
47983;BME280;33751;50.816;-1.214;2022-10-16T09:09:29;101156.42;;;13.94;100.00
47983;BME280;33751;50.816;-1.214;2022-10-16T09:12:05;101156.61;;;13.80;100.00
47983;BME280;33751;50.816;-1.214;2022-10-16T09:14:40;101156.76;;;14.13;100.00
47983;BME280;33751;50.816;-1.214;2022-10-16T09:17:22;101155.08;;;14.16;100.00
47983;BME280;33751;50.816;-1.214;2022-10-16T09:19:59;101162.30;;;14.28;100.00
47983;BME280;33751;50.816;-1.214;2022-10-16T09:22:32;101167.46;;;14.06;100.00
47983;BME280;33751;50.816;-1.214;2022-10-16T09:25:00;101171.88;;;14.47;100.00
47983;BME280;33751;50.816;-1.214;2022-10-16T09:27:37;101176.69;;;14.42;100.00
47983;BME280;33751;50.816;-1.214;2022-10-16T09:30:12;101176.17;;;14.61;100.00
47983;BME280;33751;50.816;-1.214;2022-10-16T09:32:40;101181.13;;;14.72;100.00
47983;BME280;33751;50.816;-1.214;2022-10-16T09:35:14;101186.68;;;14.52;100.00
47983;BME280;33751;50.816;-1.214;2022-10-16T09:37:43;101190.26;;;14.94;100.00
47983;BME280;33751;50.816;-1.214;2022-10-16T09:40:13;101190.66;;;14.68;100.00
47983;BME280;33751;50.816;-1.214;2022-10-16T09:42:56;101187.28;;;15.00;100.00
47983;BME280;33751;50.816;-1.214;2022-10-16T09:45:24;101187.84;;;14.50;100.00
47983;BME280;33751;50.816;-1.214;2022-10-16T09:47:51;101189.54;;;14.87;100.00
47983;BME280;33751;50.816;-1.214;2022-10-16T09:50:23;101189.59;;;15.17;100.00
47983;BME280;33751;50.816;-1.214;2022-10-16T09:52:50;101187.10;;;15.12;100.00
47983;BME280;33751;50.816;-1.214;2022-10-16T09:55:18;101195.10;;;14.75;100.00
47983;BME280;33751;50.816;-1.214;2022-10-16T09:57:49;101195.46;;;14.90;100.00
47983;BME280;33751;50.816;-1.214;2022-10-16T10:00:17;101195.53;;;14.98;100.00
47983;BME280;33751;50.816;-1.214;2022-10-16T10:02:44;101194.98;;;15.04;100.00
47983;BME280;33751;50.816;-1.214;2022-10-16T10:05:19;101192.63;;;14.50;100.00
47983;BME280;33751;50.816;-1.214;2022-10-16T10:07:54;101196.50;;;15.04;100.00
47983;BME280;33751;50.816;-1.214;2022-10-16T10:10:23;101196.20;;;14.97;100.00
47983;BME280;33751;50.816;-1.214;2022-10-16T10:12:50;101194.49;;;14.61;100.00
47983;BME280;33751;50.816;-1.214;2022-10-16T10:15:18;101191.81;;;14.92;100.00
47983;BME280;33751;50.816;-1.214;2022-10-16T10:17:47;101183.17;;;15.16;100.00
47983;BME280;33751;50.816;-1.214;2022-10-16T10:20:23;101181.89;;;15.46;100.00
47983;BME280;33751;50.816;-1.214;2022-10-16T10:22:51;101182.60;;;15.39;100.00
47983;BME280;33751;50.816;-1.214;2022-10-16T10:25:31;101186.86;;;15.31;100.00
47983;BME280;33751;50.816;-1.214;2022-10-16T10:28:15;101179.19;;;16.07;100.00
47983;BME280;33751;50.816;-1.214;2022-10-16T10:30:50;101169.48;;;15.62;100.00
47983;BME280;33751;50.816;-1.214;2022-10-16T10:33:27;101170.78;;;15.75;100.00
47983;BME280;33751;50.816;-1.214;2022-10-16T10:36:03;101172.66;;;15.79;100.00
47983;BME280;33751;50.816;-1.214;2022-10-16T10:38:42;101170.15;;;15.08;100.00
47983;BME280;33751;50.816;-1.214;2022-10-16T10:41:26;101171.43;;;16.03;100.00
47983;BME280;33751;50.816;-1.214;2022-10-16T10:44:06;101172.71;;;15.81;100.00
47983;BME280;33751;50.816;-1.214;2022-10-16T10:46:41;101172.94;;;16.17;100.00
47983;BME280;33751;50.816;-1.214;2022-10-16T10:49:20;101170.04;;;15.75;100.00
47983;BME280;33751;50.816;-1.214;2022-10-16T10:51:59;101168.87;;;15.88;100.00
47983;BME280;33751;50.816;-1.214;2022-10-16T10:54:32;101164.43;;;16.20;100.00
47983;BME280;33751;50.816;-1.214;2022-10-16T10:57:09;101163.84;;;15.51;100.00
47983;BME280;33751;50.816;-1.214;2022-10-16T10:59:48;101168.97;;;15.64;100.00
47983;BME280;33751;50.816;-1.214;2022-10-16T11:02:28;101170.43;;;16.15;100.00
47983;BME280;33751;50.816;-1.214;2022-10-16T11:05:28;101174.46;;;15.60;100.00
47983;BME280;33751;50.816;-1.214;2022-10-16T11:08:00;101175.72;;;15.90;100.00
47983;BME280;33751;50.816;-1.214;2022-10-16T11:10:32;101177.85;;;15.97;100.00
47983;BME280;33751;50.816;-1.214;2022-10-16T11:13:14;101172.80;;;16.02;100.00
47983;BME280;33751;50.816;-1.214;2022-10-16T11:15:45;101172.63;;;16.29;100.00
47983;BME280;33751;50.816;-1.214;2022-10-16T11:18:19;101168.48;;;16.50;100.00
47983;BME280;33751;50.816;-1.214;2022-10-16T11:20:52;101163.53;;;16.77;100.00
47983;BME280;33751;50.816;-1.214;2022-10-16T11:23:25;101166.84;;;16.72;100.00
47983;BME280;33751;50.816;-1.214;2022-10-16T11:25:56;101169.18;;;16.84;100.00
47983;BME280;33751;50.816;-1.214;2022-10-16T11:28:31;101172.92;;;16.99;100.00
47983;BME280;33751;50.816;-1.214;2022-10-16T11:31:03;101173.40;;;16.78;100.00
47983;BME280;33751;50.816;-1.214;2022-10-16T11:33:39;101177.98;;;16.78;100.00
47983;BME280;33751;50.816;-1.214;2022-10-16T11:36:12;101179.79;;;16.51;100.00
47983;BME280;33751;50.816;-1.214;2022-10-16T11:38:51;101179.22;;;16.62;100.00
47983;BME280;33751;50.816;-1.214;2022-10-16T11:41:24;101180.43;;;16.15;100.00
47983;BME280;33751;50.816;-1.214;2022-10-16T11:44:06;101176.28;;;16.02;100.00
47983;BME280;33751;50.816;-1.214;2022-10-16T11:46:38;101169.01;;;16.28;100.00
47983;BME280;33751;50.816;-1.214;2022-10-16T11:49:12;101165.66;;;16.20;100.00
47983;BME280;33751;50.816;-1.214;2022-10-16T11:51:45;101160.57;;;15.90;100.00
47983;BME280;33751;50.816;-1.214;2022-10-16T11:54:22;101162.13;;;15.87;100.00
47983;BME280;33751;50.816;-1.214;2022-10-16T11:56:57;101163.65;;;16.32;100.00
47983;BME280;33751;50.816;-1.214;2022-10-16T11:59:30;101166.21;;;16.11;100.00
47983;BME280;33751;50.816;-1.214;2022-10-16T12:02:25;101167.41;;;16.07;100.00
47983;BME280;33751;50.816;-1.214;2022-10-16T12:05:02;101164.10;;;15.74;100.00
47983;BME280;33751;50.816;-1.214;2022-10-16T12:07:36;101159.65;;;15.94;100.00
47983;BME280;33751;50.816;-1.214;2022-10-16T12:10:19;101157.12;;;16.02;100.00
47983;BME280;33751;50.816;-1.214;2022-10-16T12:12:47;101151.96;;;15.60;100.00
47983;BME280;33751;50.816;-1.214;2022-10-16T12:15:24;101145.94;;;16.04;100.00
47983;BME280;33751;50.816;-1.214;2022-10-16T12:17:53;101145.07;;;16.02;100.00
47983;BME280;33751;50.816;-1.214;2022-10-16T12:20:24;101145.64;;;15.52;100.00
47983;BME280;33751;50.816;-1.214;2022-10-16T12:22:53;101145.55;;;15.37;100.00
47983;BME280;33751;50.816;-1.214;2022-10-16T12:25:24;101147.82;;;16.19;100.00
47983;BME280;33751;50.816;-1.214;2022-10-16T12:27:55;101149.50;;;15.88;100.00
47983;BME280;33751;50.816;-1.214;2022-10-16T12:30:24;101144.33;;;15.83;100.00
47983;BME280;33751;50.816;-1.214;2022-10-16T12:32:55;101137.19;;;16.01;100.00
47983;BME280;33751;50.816;-1.214;2022-10-16T12:35:24;101143.46;;;16.10;100.00
47983;BME280;33751;50.816;-1.214;2022-10-16T12:37:52;101151.76;;;15.99;100.00
47983;BME280;33751;50.816;-1.214;2022-10-16T12:40:29;101147.48;;;16.07;100.00
47983;BME280;33751;50.816;-1.214;2022-10-16T12:42:57;101141.92;;;15.55;100.00
47983;BME280;33751;50.816;-1.214;2022-10-16T12:45:27;101149.52;;;15.02;100.00